Time;durP1;ratioP1;P1;durP2;ratioP2;P2;SDS_P1;SDS_P2;PMS_P1;PMS_P2;Temp;Humidity;BMP_temperature;BMP_pressure;BME280_temperature;BME280_humidity;BME280_pressure;Samples;Min_cycle;Max_cycle;Signal;HPM_P1;HPM_P2
2021/04/17 00:01:06;;;;;;;;;;;;;;;13.22;39.68;102960.47;5068990;28;19971;-82
2021/04/17 00:03:31;;;;;;;;;;;;;;;12.69;40.36;102963.53;5062317;28;19920;-82
2021/04/17 00:05:57;;;;;;;;;;;;;;;12.91;40.38;102966.66;5043981;28;20015;-83
2021/04/17 00:08:22;;;;;;;;;;;;;;;12.75;40.34;102962.50;5060644;28;19921;-84
2021/04/17 00:10:47;;;;;;;;;;;;;;;12.92;40.33;102953.97;5060624;28;19971;-83
2021/04/17 00:13:12;;;;;;;;;;;;;;;13.17;39.80;102954.28;5057019;28;20082;-83
2021/04/17 00:15:38;;;;;;;;;;;;;;;13.07;39.61;102960.84;5058483;28;19923;-82
2021/04/17 00:18:03;;;;;;;;;;;;;;;13.22;38.94;102959.59;5060380;28;20318;-83
2021/04/17 00:20:28;;;;;;;;;;;;;;;13.16;39.44;102957.03;5061079;28;19917;-84
2021/04/17 00:22:53;;;;;;;;;;;;;;;13.27;38.83;102954.91;5060870;28;19924;-83
2021/04/17 00:25:19;;;;;;;;;;;;;;;12.74;40.12;102967.06;5060838;28;19940;-83
2021/04/17 00:27:44;;;;;;;;;;;;;;;12.96;39.87;102962.97;5060035;28;19938;-83
2021/04/17 00:30:09;;;;;;;;;;;;;;;12.71;40.17;102967.13;5060228;28;19932;-83
2021/04/17 00:32:35;;;;;;;;;;;;;;;12.73;40.08;102962.56;5061790;28;19932;-84
2021/04/17 00:35:00;;;;;;;;;;;;;;;12.88;39.45;102960.41;5062292;28;20004;-84
2021/04/17 00:37:25;;;;;;;;;;;;;;;12.82;39.63;102949.66;5059977;28;19956;-82
2021/04/17 00:39:51;;;;;;;;;;;;;;;12.61;40.37;102951.97;5060057;28;19916;-84
2021/04/17 00:42:16;;;;;;;;;;;;;;;12.77;39.91;102950.69;5059078;28;20020;-84
2021/04/17 00:44:41;;;;;;;;;;;;;;;12.87;39.52;102945.94;5060096;28;19981;-84
2021/04/17 00:47:07;;;;;;;;;;;;;;;13.04;39.13;102948.22;5058469;28;19921;-84
2021/04/17 00:49:32;;;;;;;;;;;;;;;12.71;39.74;102956.28;5059043;28;19924;-84
2021/04/17 00:51:58;;;;;;;;;;;;;;;12.72;40.02;102958.03;5059765;28;19932;-84
2021/04/17 00:54:23;;;;;;;;;;;;;;;12.47;40.36;102955.00;5059291;28;19924;-84
2021/04/17 00:56:48;;;;;;;;;;;;;;;12.59;40.16;102956.53;5060427;28;19904;-83
2021/04/17 00:59:14;;;;;;;;;;;;;;;12.63;40.07;102958.25;5061353;28;19917;-82
2021/04/17 01:01:39;;;;;;;;;;;;;;;12.29;40.63;102955.38;5059333;28;19925;-84
2021/04/17 01:04:19;;;;;;;;;;;;;;;12.29;40.95;102953.56;5059999;28;19917;-83
2021/04/17 01:07:02;;;;;;;;;;;;;;;12.14;40.87;102954.78;5059312;28;20308;-82
2021/04/17 01:09:41;;;;;;;;;;;;;;;12.43;40.48;102957.81;5060003;28;19920;-83
2021/04/17 01:12:14;;;;;;;;;;;;;;;12.57;40.08;102951.13;5058111;28;19916;-83
2021/04/17 01:14:40;;;;;;;;;;;;;;;12.76;39.75;102954.34;5059533;28;19917;-83
2021/04/17 01:17:06;;;;;;;;;;;;;;;12.60;40.06;102950.16;5060714;28;19940;-83
2021/04/17 01:19:42;;;;;;;;;;;;;;;12.40;40.07;102950.63;5059165;28;19970;-83
2021/04/17 01:22:12;;;;;;;;;;;;;;;12.56;40.10;102952.06;5058922;28;19917;-84
2021/04/17 01:24:39;;;;;;;;;;;;;;;12.37;40.57;102954.28;5059797;28;19921;-83
2021/04/17 01:27:05;;;;;;;;;;;;;;;12.59;40.08;102954.72;5058880;28;19949;-83
2021/04/17 01:29:31;;;;;;;;;;;;;;;12.33;40.62;102954.38;5059092;28;20541;-82
2021/04/17 01:31:59;;;;;;;;;;;;;;;12.49;40.00;102957.69;5060403;28;20010;-83
2021/04/17 01:34:24;;;;;;;;;;;;;;;12.32;40.60;102947.16;5059418;28;19927;-84
2021/04/17 01:36:51;;;;;;;;;;;;;;;12.75;39.28;102946.22;5060533;28;20007;-82
2021/04/17 01:39:20;;;;;;;;;;;;;;;12.74;39.15;102942.63;5060102;28;19916;-83
2021/04/17 01:41:48;;;;;;;;;;;;;;;12.90;38.73;102943.13;5058726;28;19917;-83
2021/04/17 01:44:15;;;;;;;;;;;;;;;12.65;38.96;102944.63;5059687;28;19917;-82
2021/04/17 01:46:51;;;;;;;;;;;;;;;12.68;39.17;102940.03;5060953;28;19904;-83
2021/04/17 01:49:18;;;;;;;;;;;;;;;12.56;39.55;102940.28;5062261;28;20286;-82
2021/04/17 01:51:44;;;;;;;;;;;;;;;12.30;39.99;102938.16;5063195;28;20389;-83
2021/04/17 01:54:17;;;;;;;;;;;;;;;12.48;39.36;102942.31;5061623;28;19917;-83
2021/04/17 01:56:43;;;;;;;;;;;;;;;12.79;38.97;102928.94;5066581;28;20028;-84
2021/04/17 01:59:08;;;;;;;;;;;;;;;12.72;38.76;102930.88;5067111;28;19956;-83
2021/04/17 02:01:34;;;;;;;;;;;;;;;12.54;39.19;102939.44;5066650;28;19932;-83
2021/04/17 02:03:59;;;;;;;;;;;;;;;12.62;39.04;102934.75;5065050;28;19925;-83
2021/04/17 02:06:24;;;;;;;;;;;;;;;12.68;39.32;102931.91;5062139;28;19924;-83
2021/04/17 02:08:49;;;;;;;;;;;;;;;12.79;38.64;102928.94;5062295;28;19917;-83
2021/04/17 02:11:15;;;;;;;;;;;;;;;12.86;38.39;102933.28;5062281;28;19913;-83
2021/04/17 02:13:41;;;;;;;;;;;;;;;12.56;39.44;102938.50;5062756;28;19932;-83
2021/04/17 02:16:21;;;;;;;;;;;;;;;12.74;38.74;102930.84;5063860;28;19917;-84
2021/04/17 02:18:56;;;;;;;;;;;;;;;12.66;39.18;102935.56;5062774;28;19935;-84
2021/04/17 02:21:23;;;;;;;;;;;;;;;12.63;39.31;102933.81;5062353;28;19917;-85
2021/04/17 02:23:49;;;;;;;;;;;;;;;12.69;39.35;102933.66;5062486;28;19917;-84
2021/04/17 02:26:14;;;;;;;;;;;;;;;12.48;39.79;102936.88;5063661;28;19923;-84
2021/04/17 02:28:40;;;;;;;;;;;;;;;12.48;39.90;102937.75;5062468;28;19940;-83
2021/04/17 02:31:05;;;;;;;;;;;;;;;12.68;39.53;102931.91;5062875;28;19948;-84
2021/04/17 02:33:30;;;;;;;;;;;;;;;12.50;39.85;102926.84;5062744;28;19917;-84
2021/04/17 02:35:56;;;;;;;;;;;;;;;12.43;40.33;102927.94;5061507;28;19921;-83
2021/04/17 02:38:21;;;;;;;;;;;;;;;12.19;40.28;102919.41;5061862;28;20063;-85
2021/04/17 02:40:47;;;;;;;;;;;;;;;12.44;40.18;102924.28;5062999;28;19921;-83
2021/04/17 02:43:12;;;;;;;;;;;;;;;12.06;40.75;102918.75;5061724;28;19917;-84
2021/04/17 02:45:37;;;;;;;;;;;;;;;12.36;40.41;102928.06;5061080;28;20325;-84
2021/04/17 02:48:02;;;;;;;;;;;;;;;12.20;40.70;102926.63;5061634;28;19923;-83
2021/04/17 02:50:28;;;;;;;;;;;;;;;12.44;40.11;102922.50;5060708;28;19928;-83
2021/04/17 02:52:53;;;;;;;;;;;;;;;12.22;40.28;102913.91;5061063;28;19924;-83
2021/04/17 02:55:19;;;;;;;;;;;;;;;12.27;40.06;102917.41;5063030;28;20336;-83
2021/04/17 02:57:45;;;;;;;;;;;;;;;12.32;40.15;102925.44;5061799;28;19917;-83
2021/04/17 03:00:12;;;;;;;;;;;;;;;12.34;40.00;102918.19;5062049;28;19932;-83
2021/04/17 03:02:37;;;;;;;;;;;;;;;12.33;40.03;102922.69;5062152;28;20243;-82
2021/04/17 03:05:03;;;;;;;;;;;;;;;12.27;40.09;102919.22;5059785;28;19917;-83
2021/04/17 03:07:29;;;;;;;;;;;;;;;11.94;41.12;102922.63;5060682;28;19924;-82
2021/04/17 03:09:54;;;;;;;;;;;;;;;12.13;40.82;102914.09;5062251;28;19959;-83
2021/04/17 03:12:19;;;;;;;;;;;;;;;11.89;41.57;102921.78;5061421;28;19928;-84
2021/04/17 03:14:45;;;;;;;;;;;;;;;11.80;41.75;102922.84;5062208;28;19965;-84
2021/04/17 03:17:10;;;;;;;;;;;;;;;11.71;42.10;102917.59;5065618;28;19931;-83
2021/04/17 03:19:35;;;;;;;;;;;;;;;11.59;42.37;102920.53;5065205;28;19901;-84
2021/04/17 03:22:01;;;;;;;;;;;;;;;11.86;41.75;102917.28;5060881;28;20000;-83
2021/04/17 03:24:29;;;;;;;;;;;;;;;11.58;42.38;102922.38;5060796;28;20007;-84
2021/04/17 03:26:54;;;;;;;;;;;;;;;11.54;42.22;102917.91;5062024;28;20402;-84
2021/04/17 03:29:20;;;;;;;;;;;;;;;12.20;40.45;102907.63;5062015;28;19917;-84
2021/04/17 03:31:46;;;;;;;;;;;;;;;11.88;41.64;102912.75;5069036;28;19964;-84
2021/04/17 03:34:12;;;;;;;;;;;;;;;11.97;41.06;102911.72;5064360;28;19984;-83
2021/04/17 03:36:37;;;;;;;;;;;;;;;11.70;41.74;102916.72;5063682;28;20370;-83
2021/04/17 03:39:03;;;;;;;;;;;;;;;11.67;41.69;102919.50;5062774;28;19924;-83
2021/04/17 03:41:28;;;;;;;;;;;;;;;11.93;41.57;102920.84;5062279;28;19916;-83
2021/04/17 03:43:55;;;;;;;;;;;;;;;11.94;41.69;102916.28;5065108;28;20067;-83
2021/04/17 03:46:20;;;;;;;;;;;;;;;11.80;41.46;102919.25;5062800;28;19917;-84
2021/04/17 03:49:09;;;;;;;;;;;;;;;11.77;41.90;102916.59;5066336;28;20317;-84
2021/04/17 03:51:33;;;;;;;;;;;;;;;11.75;41.50;102913.91;5064129;28;19947;-84
2021/04/17 03:53:58;;;;;;;;;;;;;;;12.18;40.86;102910.38;5064268;28;20442;-84
2021/04/17 03:56:24;;;;;;;;;;;;;;;12.10;40.79;102915.06;5067587;28;19986;-83
2021/04/17 03:58:49;;;;;;;;;;;;;;;12.29;40.51;102910.13;5062343;28;19928;-84
2021/04/17 04:01:14;;;;;;;;;;;;;;;12.07;41.06;102906.09;5061766;28;19931;-84
2021/04/17 04:03:39;;;;;;;;;;;;;;;11.95;41.31;102905.41;5060403;28;19916;-84
2021/04/17 04:06:05;;;;;;;;;;;;;;;11.64;42.22;102915.91;5062173;28;19923;-84
2021/04/17 04:08:30;;;;;;;;;;;;;;;11.40;42.89;102918.19;5061708;28;19917;-83
2021/04/17 04:10:55;;;;;;;;;;;;;;;11.73;42.07;102912.16;5061105;28;20351;-82
2021/04/17 04:13:22;;;;;;;;;;;;;;;11.75;42.11;102915.75;5061307;28;19901;-84
2021/04/17 04:15:47;;;;;;;;;;;;;;;11.57;42.67;102915.16;5060686;28;19986;-83
2021/04/17 04:18:12;;;;;;;;;;;;;;;11.58;42.63;102911.53;5060405;28;19916;-83
2021/04/17 04:20:39;;;;;;;;;;;;;;;11.46;42.97;102911.75;5059970;28;19916;-82
2021/04/17 04:23:04;;;;;;;;;;;;;;;11.42;43.31;102912.72;5061164;28;19960;-84
2021/04/17 04:25:29;;;;;;;;;;;;;;;11.40;43.45;102914.56;5059818;28;20324;-83
2021/04/17 04:27:55;;;;;;;;;;;;;;;11.42;43.37;102916.31;5058759;28;19917;-83
2021/04/17 04:30:21;;;;;;;;;;;;;;;11.14;44.33;102921.31;5059796;28;19923;-84
2021/04/17 04:32:46;;;;;;;;;;;;;;;11.37;43.55;102920.03;5062723;28;20110;-84
2021/04/17 04:35:29;;;;;;;;;;;;;;;11.26;43.98;102914.81;5060811;28;19923;-83
2021/04/17 04:37:55;;;;;;;;;;;;;;;11.46;43.73;102920.78;5043899;28;20009;-83
2021/04/17 04:40:20;;;;;;;;;;;;;;;11.56;43.17;102924.19;5058105;28;19920;-84
2021/04/17 04:42:45;;;;;;;;;;;;;;;11.35;43.80;102926.41;5059375;28;19916;-84
2021/04/17 04:45:12;;;;;;;;;;;;;;;11.24;43.90;102922.97;5060054;28;20282;-84
2021/04/17 04:47:37;;;;;;;;;;;;;;;11.42;43.55;102929.00;5063031;28;19924;-82
2021/04/17 04:50:03;;;;;;;;;;;;;;;11.15;44.50;102920.41;5061620;28;20435;-84
2021/04/17 04:52:29;;;;;;;;;;;;;;;10.95;44.56;102921.63;5061422;28;19943;-83
2021/04/17 04:54:54;;;;;;;;;;;;;;;11.57;43.68;102927.81;5062297;28;19956;-83
2021/04/17 04:57:19;;;;;;;;;;;;;;;11.43;43.70;102923.53;5061279;28;19924;-82
2021/04/17 04:59:44;;;;;;;;;;;;;;;11.17;44.69;102923.97;5062030;28;19924;-83
2021/04/17 05:02:11;;;;;;;;;;;;;;;11.49;43.70;102918.00;5061267;28;19917;-82
2021/04/17 05:04:39;;;;;;;;;;;;;;;11.88;43.02;102925.41;5060625;28;19916;-84
2021/04/17 05:07:04;;;;;;;;;;;;;;;11.75;43.42;102924.75;5062844;28;20004;-85
2021/04/17 05:09:30;;;;;;;;;;;;;;;11.75;43.14;102921.16;5064843;28;19920;-85
2021/04/17 05:11:56;;;;;;;;;;;;;;;11.81;43.43;102924.63;5065661;28;19924;-84
2021/04/17 05:14:22;;;;;;;;;;;;;;;11.93;43.10;102923.53;5064360;28;19924;-85
2021/04/17 05:16:47;;;;;;;;;;;;;;;11.83;42.85;102927.31;5063882;28;19925;-85
2021/04/17 05:19:12;;;;;;;;;;;;;;;11.61;43.84;102922.31;5062681;28;19980;-85
2021/04/17 05:21:38;;;;;;;;;;;;;;;11.76;43.72;102921.13;5063705;28;19917;-85
2021/04/17 05:24:03;;;;;;;;;;;;;;;12.06;42.39;102916.03;5064721;28;19983;-84
2021/04/17 05:26:30;;;;;;;;;;;;;;;11.96;42.96;102909.91;5061278;28;19916;-84
2021/04/17 05:28:56;;;;;;;;;;;;;;;12.08;43.12;102916.00;5057033;28;19912;-85
2021/04/17 05:31:22;;;;;;;;;;;;;;;11.96;43.86;102923.47;5062339;28;19995;-87
2021/04/17 05:33:47;;;;;;;;;;;;;;;11.42;45.16;102920.88;5062857;28;19935;-92
2021/04/17 05:36:13;;;;;;;;;;;;;;;11.43;45.09;102922.63;5063536;28;19921;-86
2021/04/17 05:38:38;;;;;;;;;;;;;;;11.56;45.14;102924.19;5062434;28;20488;-91
2021/04/17 05:41:03;;;;;;;;;;;;;;;12.21;43.56;102917.53;5065142;28;19917;-90
2021/04/17 05:43:29;;;;;;;;;;;;;;;11.96;44.67;102923.47;5062689;28;20286;-90
2021/04/17 05:45:54;;;;;;;;;;;;;;;12.32;44.43;102915.50;5067838;28;19967;-91
2021/04/17 05:48:20;;;;;;;;;;;;;;;12.21;44.26;102917.53;5070600;28;19907;-89
2021/04/17 05:50:45;;;;;;;;;;;;;;;12.09;44.84;102913.25;5070240;28;19924;-91
2021/04/17 05:53:10;;;;;;;;;;;;;;;12.10;45.24;102923.19;5070106;28;19928;-90
2021/04/17 05:55:36;;;;;;;;;;;;;;;12.54;44.62;102920.44;5077093;28;19909;-88
2021/04/17 05:58:02;;;;;;;;;;;;;;;12.80;43.63;102908.97;5062767;28;19921;-90
2021/04/17 06:00:27;;;;;;;;;;;;;;;12.98;43.26;102915.78;5062047;28;19925;-86
2021/04/17 06:02:56;;;;;;;;;;;;;;;12.95;43.82;102921.28;5066322;28;19971;-86
2021/04/17 06:05:21;;;;;;;;;;;;;;;13.18;43.30;102922.53;5062858;28;19962;-86
2021/04/17 06:07:47;;;;;;;;;;;;;;;12.58;44.81;102914.91;5062239;28;20304;-82
2021/04/17 06:10:12;;;;;;;;;;;;;;;13.17;43.12;102918.94;5062586;28;19917;-84
2021/04/17 06:12:37;;;;;;;;;;;;;;;13.08;44.39;102920.06;5058596;28;19924;-86
2021/04/17 06:15:05;;;;;;;;;;;;;;;13.69;43.05;102923.97;5059076;28;19924;-83
2021/04/17 06:17:30;;;;;;;;;;;;;;;14.42;41.59;102915.50;5058989;28;19969;-83
2021/04/17 06:19:57;;;;;;;;;;;;;;;13.42;43.10;102915.63;5056953;28;19929;-82
2021/04/17 06:22:22;;;;;;;;;;;;;;;13.51;43.81;102919.91;5060957;28;19917;-87
2021/04/17 06:24:47;;;;;;;;;;;;;;;13.47;44.16;102920.00;5062491;28;20000;-85
2021/04/17 06:27:12;;;;;;;;;;;;;;;13.43;44.24;102912.84;5066576;28;19917;-87
2021/04/17 06:29:38;;;;;;;;;;;;;;;13.21;44.50;102917.03;5058830;28;19963;-83
2021/04/17 06:32:03;;;;;;;;;;;;;;;13.33;44.84;102914.03;5062010;28;20370;-83
2021/04/17 06:34:29;;;;;;;;;;;;;;;13.72;44.04;102921.16;5058517;28;20019;-83
2021/04/17 06:36:54;;;;;;;;;;;;;;;14.08;43.71;102915.63;5061034;28;19962;-84
2021/04/17 06:39:19;;;;;;;;;;;;;;;14.19;43.74;102918.91;5060807;28;19963;-84
2021/04/17 06:41:47;;;;;;;;;;;;;;;13.83;44.56;102921.78;5063595;28;19964;-84
2021/04/17 06:44:15;;;;;;;;;;;;;;;14.11;44.00;102924.56;5065079;28;19916;-85
2021/04/17 06:46:40;;;;;;;;;;;;;;;13.83;44.40;102919.94;5067819;28;20019;-86
2021/04/17 06:49:07;;;;;;;;;;;;;;;14.04;44.41;102914.84;5062651;28;20005;-87
2021/04/17 06:51:33;;;;;;;;;;;;;;;14.37;43.22;102917.47;5060839;28;19921;-89
2021/04/17 06:54:00;;;;;;;;;;;;;;;14.44;43.90;102921.78;5064737;28;19924;-86
2021/04/17 06:56:26;;;;;;;;;;;;;;;14.68;43.49;102914.72;5066134;28;19924;-85
2021/04/17 06:58:51;;;;;;;;;;;;;;;14.62;43.29;102923.09;5064306;28;19916;-85
2021/04/17 07:01:17;;;;;;;;;;;;;;;14.64;43.03;102923.03;5064680;28;19929;-86
2021/04/17 07:03:42;;;;;;;;;;;;;;;14.65;44.04;102924.81;5059651;28;19928;-88
2021/04/17 07:06:08;;;;;;;;;;;;;;;14.97;43.22;102921.06;5061672;28;20424;-83
2021/04/17 07:08:33;;;;;;;;;;;;;;;14.47;43.92;102923.53;5062052;28;19967;-84
2021/04/17 07:10:59;;;;;;;;;;;;;;;14.73;44.00;102914.56;5060684;28;19917;-86
2021/04/17 07:13:26;;;;;;;;;;;;;;;15.37;42.29;102914.25;5059380;28;19964;-87
2021/04/17 07:15:52;;;;;;;;;;;;;;;14.63;44.63;102919.44;5060435;28;20007;-86
2021/04/17 07:18:38;;;;;;;;;;;;;;;15.07;43.39;102916.19;5059116;28;19944;-87
2021/04/17 07:21:13;;;;;;;;;;;;;;;15.63;42.22;102909.72;5060411;28;19912;-87
2021/04/17 07:23:39;;;;;;;;;;;;;;;15.23;42.53;102914.75;5060611;28;19917;-86
2021/04/17 07:26:10;;;;;;;;;;;;;;;15.55;42.25;102904.53;5043965;28;20015;-86
2021/04/17 07:28:36;;;;;;;;;;;;;;;15.30;43.17;102909.06;5063312;28;19935;-87
2021/04/17 07:31:02;;;;;;;;;;;;;;;15.84;41.21;102912.66;5058660;28;19931;-87
2021/04/17 07:33:29;;;;;;;;;;;;;;;16.04;40.70;102907.31;5059263;28;19916;-85
2021/04/17 07:35:56;;;;;;;;;;;;;;;15.68;41.80;102913.16;5059497;28;20383;-86
2021/04/17 07:38:23;;;;;;;;;;;;;;;15.46;41.75;102910.31;5060885;28;19916;-86
2021/04/17 07:41:00;;;;;;;;;;;;;;;16.46;39.25;102908.47;5063373;28;19928;-86
2021/04/17 07:43:44;;;;;;;;;;;;;;;16.90;38.41;102914.00;5067761;28;19920;-87
2021/04/17 07:46:10;;;;;;;;;;;;;;;16.46;39.44;102908.47;5060289;28;20286;-86
2021/04/17 07:48:35;;;;;;;;;;;;;;;16.20;40.36;102914.94;5059583;28;19917;-88
2021/04/17 07:51:02;;;;;;;;;;;;;;;15.72;40.36;102917.56;5060695;28;19931;-87
2021/04/17 07:53:27;;;;;;;;;;;;;;;16.03;39.07;102915.56;5060319;28;19920;-84
2021/04/17 07:55:53;;;;;;;;;;;;;;;16.42;38.46;102913.16;5057967;28;19913;-85
2021/04/17 07:58:18;;;;;;;;;;;;;;;16.59;38.89;102912.50;5060158;28;19923;-87
2021/04/17 08:00:44;;;;;;;;;;;;;;;17.16;37.27;102910.16;5057683;28;20015;-87
2021/04/17 08:03:09;;;;;;;;;;;;;;;17.52;36.03;102911.41;5061410;28;19917;-88
2021/04/17 08:05:36;;;;;;;;;;;;;;;16.93;36.41;102907.53;5059569;28;19924;-86
2021/04/17 08:08:01;;;;;;;;;;;;;;;16.76;36.11;102910.94;5057891;28;19963;-86
2021/04/17 08:10:27;;;;;;;;;;;;;;;16.65;35.74;102909.53;5061057;28;20354;-89
2021/04/17 08:12:56;;;;;;;;;;;;;;;16.37;35.55;102909.72;5057686;28;19904;-87
2021/04/17 08:15:22;;;;;;;;;;;;;;;16.97;33.61;102898.25;5059391;28;19959;-88
2021/04/17 08:17:49;;;;;;;;;;;;;;;16.88;33.00;102899.53;5060592;28;19920;-89
2021/04/17 08:20:16;;;;;;;;;;;;;;;16.85;33.20;102899.63;5058105;28;20035;-89
2021/04/17 08:22:42;;;;;;;;;;;;;;;17.34;32.38;102902.13;5042910;28;20039;-89
2021/04/17 08:25:09;;;;;;;;;;;;;;;17.94;31.59;102901.38;5060000;28;19921;-87
2021/04/17 08:27:34;;;;;;;;;;;;;;;18.02;31.46;102904.63;5059713;28;19917;-87
2021/04/17 08:30:06;;;;;;;;;;;;;;;17.88;30.28;102903.38;5060369;28;19939;-88
2021/04/17 08:32:31;;;;;;;;;;;;;;;17.40;29.73;102903.72;5060381;28;19923;-86
2021/04/17 08:35:05;;;;;;;;;;;;;;;18.19;30.13;102907.47;5059968;28;19917;-89
2021/04/17 08:37:33;;;;;;;;;;;;;;;17.88;28.99;102894.28;5060395;28;19916;-86
2021/04/17 08:39:59;;;;;;;;;;;;;;;18.12;28.39;102900.50;5060560;28;19963;-88
2021/04/17 08:42:38;;;;;;;;;;;;;;;17.86;28.74;102894.34;5057965;28;19917;-86
2021/04/17 08:45:11;;;;;;;;;;;;;;;18.14;28.18;102897.69;5057233;28;19916;-86
2021/04/17 08:47:53;;;;;;;;;;;;;;;18.01;27.59;102892.78;5059806;28;20003;-87
2021/04/17 08:50:36;;;;;;;;;;;;;;;18.74;26.52;102892.94;5059116;28;19931;-86
2021/04/17 08:53:01;;;;;;;;;;;;;;;17.81;25.33;102893.66;5058453;28;20243;-85
2021/04/17 08:55:42;;;;;;;;;;;;;;;17.87;25.69;102895.22;5058878;28;19922;-85
2021/04/17 08:58:16;;;;;;;;;;;;;;;18.71;24.67;102884.88;5059182;28;19917;-82
2021/04/17 09:00:43;;;;;;;;;;;;;;;17.99;23.91;102891.94;5059424;28;20263;-85
2021/04/17 09:03:08;;;;;;;;;;;;;;;19.24;22.78;102893.25;5058392;28;20032;-87
2021/04/17 09:05:42;;;;;;;;;;;;;;;18.27;22.49;102889.75;5059605;28;19960;-90
2021/04/17 09:08:12;;;;;;;;;;;;;;;19.64;22.57;102886.53;5058457;28;19990;-90
2021/04/17 09:10:38;;;;;;;;;;;;;;;18.65;23.28;102884.31;5057802;28;20521;-87
2021/04/17 09:13:20;;;;;;;;;;;;;;;18.68;23.16;102885.03;5060643;28;19972;-86
2021/04/17 09:15:49;;;;;;;;;;;;;;;18.93;23.54;102886.56;5058718;28;19920;-87
2021/04/17 09:18:33;;;;;;;;;;;;;;;19.25;23.51;102878.56;5058579;28;19913;-85
2021/04/17 09:21:01;;;;;;;;;;;;;;;18.58;24.68;102886.44;5060634;28;19921;-88
2021/04/17 09:23:44;;;;;;;;;;;;;;;18.56;24.73;102882.91;5058402;28;19916;-89
2021/04/17 09:26:29;;;;;;;;;;;;;;;18.64;25.26;102886.13;5058095;28;19951;-86
2021/04/17 09:28:55;;;;;;;;;;;;;;;18.46;25.43;102876.97;5053652;28;20007;-88
2021/04/17 09:31:21;;;;;;;;;;;;;;;18.22;25.25;102879.94;5057793;28;20002;-87
2021/04/17 09:33:46;;;;;;;;;;;;;;;19.19;24.82;102882.50;5060457;28;20285;-85
2021/04/17 09:36:21;;;;;;;;;;;;;;;18.91;25.64;102877.53;5057226;28;19917;-86
2021/04/17 09:38:46;;;;;;;;;;;;;;;17.92;26.35;102874.06;5057420;28;19917;-85
2021/04/17 09:41:11;;;;;;;;;;;;;;;18.79;25.78;102868.03;5056301;28;20286;-87
2021/04/17 09:43:36;;;;;;;;;;;;;;;19.54;24.66;102859.66;5055648;28;19950;-87
2021/04/17 09:46:03;;;;;;;;;;;;;;;18.88;26.07;102858.50;5056934;28;19916;-87
2021/04/17 09:48:37;;;;;;;;;;;;;;;17.99;26.72;102855.47;5057578;28;19916;-85
2021/04/17 09:51:03;;;;;;;;;;;;;;;19.42;25.22;102858.47;5057857;28;19921;-86
2021/04/17 09:53:34;;;;;;;;;;;;;;;19.15;24.95;102853.44;5040967;28;20266;-88
2021/04/17 09:56:25;;;;;;;;;;;;;;;19.34;25.21;102842.41;5058013;28;20281;-89
2021/04/17 09:59:21;;;;;;;;;;;;;;;19.59;24.56;102841.06;5053229;28;20016;-87
2021/04/17 10:01:53;;;;;;;;;;;;;;;19.41;25.22;102827.34;5055014;28;19925;-88
2021/04/17 10:04:18;;;;;;;;;;;;;;;20.32;24.65;102819.63;5037578;28;20001;-86
2021/04/17 10:06:53;;;;;;;;;;;;;;;19.81;24.92;102830.72;5042161;28;19989;-88
2021/04/17 10:09:21;;;;;;;;;;;;;;;20.34;24.60;102825.03;5023135;28;19924;-89
2021/04/17 10:11:46;;;;;;;;;;;;;;;20.19;25.25;102816.69;5039976;28;19917;-85
2021/04/17 10:14:12;;;;;;;;;;;;;;;19.91;25.73;102816.47;5059969;28;19928;-87
2021/04/17 10:16:40;;;;;;;;;;;;;;;20.63;24.54;102812.34;5054275;28;19944;-88
2021/04/17 10:19:09;;;;;;;;;;;;;;;20.35;24.83;102813.97;5063668;28;19921;-87
2021/04/17 10:21:36;;;;;;;;;;;;;;;20.31;23.97;102805.97;5063940;28;19935;-87
2021/04/17 10:24:22;;;;;;;;;;;;;;;20.82;23.52;102808.50;5061219;28;19917;-88
2021/04/17 10:26:55;;;;;;;;;;;;;;;20.27;23.44;102798.88;5088608;22;20413;-87
2021/04/17 10:29:21;;;;;;;;;;;;;;;21.33;23.51;102784.31;5083961;28;20027;-86
2021/04/17 10:32:01;;;;;;;;;;;;;;;21.01;24.83;102789.91;5083083;28;19952;-86
2021/04/17 10:34:26;;;;;;;;;;;;;;;20.08;25.42;102799.94;5086711;28;20373;-87
2021/04/17 10:37:12;;;;;;;;;;;;;;;21.06;24.08;102782.28;5085481;28;19923;-86
2021/04/17 10:39:55;;;;;;;;;;;;;;;20.11;23.87;102787.88;5085829;28;19916;-88
2021/04/17 10:42:21;;;;;;;;;;;;;;;20.41;24.39;102787.97;5083433;28;20052;-88
2021/04/17 10:44:54;;;;;;;;;;;;;;;21.11;23.50;102779.25;5069807;28;19920;-87
2021/04/17 10:47:20;;;;;;;;;;;;;;;20.68;24.01;102771.75;5060750;28;19923;-86
2021/04/17 10:49:45;;;;;;;;;;;;;;;19.92;25.08;102774.31;5063217;28;19983;-84
2021/04/17 10:52:28;;;;;;;;;;;;;;;21.20;24.38;102769.53;5080204;28;19958;-84
2021/04/17 10:54:53;;;;;;;;;;;;;;;21.72;23.77;102774.50;5062919;28;19917;-83
2021/04/17 10:57:19;;;;;;;;;;;;;;;22.59;22.81;102768.84;5080915;28;19928;-84
2021/04/17 10:59:57;;;;;;;;;;;;;;;21.04;22.66;102764.09;5064518;28;19979;-86
2021/04/17 11:02:23;;;;;;;;;;;;;;;22.11;21.72;102755.47;5062906;28;19932;-87
2021/04/17 11:04:49;;;;;;;;;;;;;;;20.80;23.93;102759.09;5062247;28;20007;-85
2021/04/17 11:07:14;;;;;;;;;;;;;;;20.91;22.52;102755.72;5063136;28;19956;-88
2021/04/17 11:09:47;;;;;;;;;;;;;;;21.07;22.75;102758.38;5064861;28;19959;-83
2021/04/17 11:12:21;;;;;;;;;;;;;;;22.11;21.61;102755.47;5085466;28;19927;-86
2021/04/17 11:14:46;;;;;;;;;;;;;;;21.88;22.36;102744.09;5070599;28;19938;-89
2021/04/17 11:17:13;;;;;;;;;;;;;;;21.56;23.28;102747.06;5083939;28;19916;-84
2021/04/17 11:19:41;;;;;;;;;;;;;;;21.80;22.77;102740.06;5075029;28;19920;-84
2021/04/17 11:22:19;;;;;;;;;;;;;;;21.35;22.47;102742.91;5061673;28;20354;-87
2021/04/17 11:25:20;;;;;;;;;;;;;;;21.10;22.62;102740.81;5080718;28;20389;-89
2021/04/17 11:27:45;;;;;;;;;;;;;;;21.05;22.37;102739.22;5063085;28;19920;-85
2021/04/17 11:30:11;;;;;;;;;;;;;;;21.15;23.00;102736.78;5072649;28;19981;-88
2021/04/17 11:32:36;;;;;;;;;;;;;;;21.95;22.62;102728.03;5084012;28;20495;-86
2021/04/17 11:35:06;;;;;;;;;;;;;;;22.74;21.72;102717.25;5089961;28;19920;-87
2021/04/17 11:37:31;;;;;;;;;;;;;;;22.79;22.37;102717.81;5099231;28;19927;-87
2021/04/17 11:39:57;;;;;;;;;;;;;;;22.11;21.18;102717.75;5087850;28;19924;-86
2021/04/17 11:42:22;;;;;;;;;;;;;;;23.09;22.27;102713.88;5083448;28;19916;-87
2021/04/17 11:44:48;;;;;;;;;;;;;;;23.49;20.83;102719.31;5082391;28;19945;-84
2021/04/17 11:47:13;;;;;;;;;;;;;;;22.47;21.83;102719.03;5081191;28;19924;-85
2021/04/17 11:49:41;;;;;;;;;;;;;;;22.50;21.92;102714.31;5082578;28;19923;-86
2021/04/17 11:52:07;;;;;;;;;;;;;;;23.40;20.26;102707.06;5081861;28;20398;-84
2021/04/17 11:54:32;;;;;;;;;;;;;;;22.83;21.02;102711.97;5101308;28;19982;-87
2021/04/17 11:56:57;;;;;;;;;;;;;;;22.54;20.95;102716.75;5083342;28;19920;-86
2021/04/17 11:59:23;;;;;;;;;;;;;;;22.99;20.67;102710.88;5082673;28;19920;-85
2021/04/17 12:01:48;;;;;;;;;;;;;;;23.01;21.53;102714.44;5082311;28;19976;-85
2021/04/17 12:04:13;;;;;;;;;;;;;;;22.64;20.89;102717.00;5100356;28;20053;-87
2021/04/17 12:06:38;;;;;;;;;;;;;;;22.73;21.08;102713.59;5080229;28;19961;-87
2021/04/17 12:09:04;;;;;;;;;;;;;;;22.76;19.92;102707.84;5081420;28;19999;-87
2021/04/17 12:11:29;;;;;;;;;;;;;;;23.41;19.73;102714.34;5100104;28;19959;-88
2021/04/17 12:13:55;;;;;;;;;;;;;;;22.04;21.33;102701.72;5089752;28;19916;-88
2021/04/17 12:16:20;;;;;;;;;;;;;;;23.37;19.67;102701.78;5089980;28;19923;-86
2021/04/17 12:18:45;;;;;;;;;;;;;;;22.80;20.34;102705.78;5089848;28;19924;-86
2021/04/17 12:21:11;;;;;;;;;;;;;;;22.42;20.39;102712.06;5089031;28;19967;-86
2021/04/17 12:23:36;;;;;;;;;;;;;;;22.55;20.92;102709.38;5087128;28;20400;-85
2021/04/17 12:26:01;;;;;;;;;;;;;;;23.03;19.34;102706.03;5093611;28;19924;-87
2021/04/17 12:28:27;;;;;;;;;;;;;;;23.06;20.37;102705.81;5099389;28;20021;-86
2021/04/17 12:30:55;;;;;;;;;;;;;;;23.20;20.48;102702.97;5098931;28;19912;-87
2021/04/17 12:33:21;;;;;;;;;;;;;;;22.43;20.88;102702.81;5100703;28;19900;-87
2021/04/17 12:35:47;;;;;;;;;;;;;;;22.59;21.64;102699.91;5101564;28;19916;-87
2021/04/17 12:38:13;;;;;;;;;;;;;;;22.13;22.82;102695.59;5097157;28;20411;-85